createdAt,value
2022-12-16T00:02:07.416Z,98.68
2022-12-16T00:04:33.876Z,99.54
2022-12-16T00:07:00.315Z,99.87
2022-12-16T00:09:26.782Z,100.00
2022-12-16T00:11:53.237Z,99.68
2022-12-16T00:14:21.350Z,100.00
2022-12-16T00:16:47.816Z,100.00
2022-12-16T00:19:14.279Z,100.00
2022-12-16T00:21:41.685Z,100.00
2022-12-16T00:24:08.057Z,100.00
2022-12-16T00:26:34.941Z,100.00
2022-12-16T00:29:01.355Z,99.97
2022-12-16T00:31:27.989Z,100.00
2022-12-16T00:33:57.768Z,99.73
2022-12-16T00:36:24.239Z,99.93
2022-12-16T00:38:51.989Z,99.96
2022-12-16T00:41:18.443Z,100.00
2022-12-16T00:43:44.844Z,100.00
2022-12-16T00:46:11.346Z,100.00
2022-12-16T00:48:37.758Z,100.00
2022-12-16T00:51:04.221Z,100.00
2022-12-16T00:53:31.068Z,100.00
2022-12-16T00:56:08.617Z,100.00
2022-12-16T00:58:35.659Z,100.00
2022-12-16T01:01:02.576Z,100.00
2022-12-16T01:03:29.198Z,100.00
2022-12-16T01:05:55.686Z,100.00
2022-12-16T01:08:22.066Z,100.00
2022-12-16T01:10:56.021Z,100.00
2022-12-16T01:13:24.434Z,100.00
2022-12-16T01:15:51.383Z,100.00
2022-12-16T01:18:18.948Z,100.00
2022-12-16T01:20:45.407Z,100.00
2022-12-16T01:23:11.821Z,100.00
2022-12-16T01:25:38.219Z,100.00
2022-12-16T01:28:04.643Z,100.00
2022-12-16T01:30:31.304Z,100.00
2022-12-16T01:32:57.681Z,100.00
2022-12-16T01:35:52.024Z,100.00
2022-12-16T01:38:10.422Z,100.00
2022-12-16T01:40:36.785Z,100.00
2022-12-16T01:43:09.097Z,100.00
2022-12-16T01:45:36.107Z,100.00
2022-12-16T01:48:14.333Z,100.00
2022-12-16T01:50:41.596Z,100.00
2022-12-16T01:53:08.565Z,100.00
2022-12-16T01:55:36.630Z,100.00
2022-12-16T01:58:07.450Z,100.00
2022-12-16T02:00:36.929Z,100.00
2022-12-16T02:03:03.956Z,100.00
2022-12-16T02:05:30.657Z,100.00
2022-12-16T02:08:02.485Z,100.00
2022-12-16T02:10:38.168Z,100.00
2022-12-16T02:13:13.719Z,100.00
2022-12-16T02:16:06.402Z,100.00
2022-12-16T02:18:41.682Z,100.00
2022-12-16T02:21:18.675Z,100.00
2022-12-16T02:23:45.214Z,100.00
2022-12-16T02:26:22.882Z,100.00
2022-12-16T02:28:55.326Z,100.00
2022-12-16T02:31:30.914Z,100.00
2022-12-16T02:34:03.485Z,100.00
2022-12-16T02:36:48.620Z,100.00
2022-12-16T02:39:21.455Z,100.00
2022-12-16T02:41:54.323Z,100.00
2022-12-16T02:44:26.460Z,100.00
2022-12-16T02:46:54.102Z,100.00
2022-12-16T02:49:21.937Z,100.00
2022-12-16T02:51:48.520Z,100.00
2022-12-16T02:54:15.130Z,100.00
2022-12-16T02:56:53.803Z,100.00
2022-12-16T02:59:38.490Z,100.00
2022-12-16T03:02:08.121Z,100.00
2022-12-16T03:04:37.104Z,100.00
2022-12-16T03:07:05.235Z,100.00
2022-12-16T03:09:33.525Z,100.00
2022-12-16T03:12:01.903Z,100.00
2022-12-16T03:14:31.637Z,100.00
2022-12-16T03:16:58.530Z,100.00
2022-12-16T03:19:26.262Z,100.00
2022-12-16T03:21:57.161Z,100.00
2022-12-16T03:24:24.112Z,100.00
2022-12-16T03:27:10.731Z,100.00
2022-12-16T03:29:41.283Z,100.00
2022-12-16T03:32:30.779Z,100.00
2022-12-16T03:35:02.449Z,100.00
2022-12-16T03:37:31.713Z,100.00
2022-12-16T03:40:00.637Z,100.00
2022-12-16T03:42:27.894Z,100.00
2022-12-16T03:44:54.439Z,100.00
2022-12-16T03:47:23.893Z,100.00
2022-12-16T03:49:51.076Z,100.00
2022-12-16T03:52:17.578Z,100.00
2022-12-16T03:54:43.959Z,100.00
2022-12-16T03:57:15.061Z,100.00
2022-12-16T03:59:41.600Z,100.00
2022-12-16T04:02:08.163Z,100.00
2022-12-16T04:04:34.648Z,100.00
2022-12-16T04:07:19.700Z,100.00
2022-12-16T04:09:46.251Z,100.00
2022-12-16T04:12:31.430Z,100.00
2022-12-16T04:15:16.317Z,100.00
2022-12-16T04:18:01.710Z,100.00
2022-12-16T04:20:55.165Z,100.00
2022-12-16T04:23:41.861Z,100.00
2022-12-16T04:26:08.301Z,100.00
2022-12-16T04:28:34.721Z,100.00
2022-12-16T04:31:01.238Z,100.00
2022-12-16T04:33:46.404Z,100.00
2022-12-16T04:36:31.326Z,100.00
2022-12-16T04:39:16.096Z,100.00
2022-12-16T04:42:14.623Z,100.00
2022-12-16T04:44:59.623Z,100.00
2022-12-16T04:48:01.743Z,100.00
2022-12-16T04:50:47.096Z,100.00
2022-12-16T04:53:32.400Z,100.00
2022-12-16T04:56:37.473Z,100.00
2022-12-16T04:59:22.308Z,100.00
2022-12-16T05:02:07.320Z,100.00
2022-12-16T05:04:52.214Z,100.00
2022-12-16T05:07:38.756Z,100.00
2022-12-16T05:10:25.036Z,100.00
2022-12-16T05:13:25.171Z,100.00
2022-12-16T05:16:10.145Z,100.00
2022-12-16T05:18:55.515Z,100.00
2022-12-16T05:21:40.346Z,100.00
2022-12-16T05:24:25.408Z,100.00
2022-12-16T05:27:10.247Z,100.00
2022-12-16T05:29:55.215Z,100.00
2022-12-16T05:32:40.023Z,100.00
2022-12-16T05:35:25.034Z,100.00
2022-12-16T05:38:09.808Z,100.00
2022-12-16T05:40:54.987Z,100.00
2022-12-16T05:43:40.294Z,100.00
2022-12-16T05:46:25.229Z,100.00
2022-12-16T05:49:10.185Z,100.00
2022-12-16T05:51:55.201Z,100.00
2022-12-16T05:54:40.177Z,100.00
2022-12-16T05:57:25.090Z,100.00
2022-12-16T06:00:10.071Z,100.00
2022-12-16T06:02:55.145Z,100.00
2022-12-16T06:05:40.480Z,100.00
2022-12-16T06:08:25.348Z,100.00
2022-12-16T06:11:10.278Z,100.00
2022-12-16T06:13:55.283Z,100.00
2022-12-16T06:16:41.994Z,100.00
2022-12-16T06:19:26.836Z,100.00
2022-12-16T06:22:11.872Z,100.00
2022-12-16T06:24:56.638Z,100.00
2022-12-16T06:27:41.615Z,100.00
2022-12-16T06:30:27.073Z,100.00
2022-12-16T06:33:11.899Z,100.00
2022-12-16T06:35:56.754Z,100.00
2022-12-16T06:38:41.756Z,100.00
2022-12-16T06:41:26.665Z,100.00
2022-12-16T06:44:11.557Z,100.00
2022-12-16T06:46:56.338Z,100.00
2022-12-16T06:49:41.201Z,100.00
2022-12-16T06:52:26.020Z,100.00
2022-12-16T06:55:10.922Z,100.00
2022-12-16T06:57:55.823Z,100.00
2022-12-16T07:00:40.940Z,100.00
2022-12-16T07:03:26.277Z,100.00
2022-12-16T07:06:11.806Z,100.00
2022-12-16T07:08:57.041Z,100.00
2022-12-16T07:11:42.071Z,100.00
2022-12-16T07:14:27.263Z,100.00
2022-12-16T07:17:16.912Z,100.00
2022-12-16T07:20:02.296Z,100.00
2022-12-16T07:22:46.979Z,100.00
2022-12-16T07:25:32.239Z,100.00
2022-12-16T07:28:17.279Z,100.00
2022-12-16T07:31:02.134Z,100.00
2022-12-16T07:33:47.060Z,100.00
2022-12-16T07:36:32.052Z,100.00
2022-12-16T07:39:16.977Z,100.00
2022-12-16T07:42:01.844Z,100.00
2022-12-16T07:44:46.666Z,100.00
2022-12-16T07:47:31.564Z,100.00
2022-12-16T07:50:16.412Z,100.00
2022-12-16T07:53:01.336Z,100.00
2022-12-16T07:55:46.588Z,100.00
2022-12-16T07:58:31.552Z,100.00
2022-12-16T08:01:16.597Z,100.00
2022-12-16T08:04:01.942Z,100.00
2022-12-16T08:06:47.124Z,100.00
2022-12-16T08:09:31.917Z,100.00
2022-12-16T08:12:16.742Z,100.00
2022-12-16T08:15:01.766Z,100.00
2022-12-16T08:17:46.447Z,100.00
2022-12-16T08:20:31.600Z,100.00
2022-12-16T08:23:16.526Z,100.00
2022-12-16T08:26:01.293Z,100.00
2022-12-16T08:28:46.410Z,100.00
2022-12-16T08:31:31.151Z,100.00
2022-12-16T08:34:16.229Z,100.00
2022-12-16T08:37:01.066Z,100.00
2022-12-16T08:39:51.348Z,100.00
2022-12-16T08:42:50.101Z,100.00
2022-12-16T08:45:35.018Z,100.00
2022-12-16T08:48:19.974Z,100.00
2022-12-16T08:51:04.820Z,100.00
2022-12-16T08:53:49.772Z,100.00
2022-12-16T08:56:34.742Z,100.00
2022-12-16T08:59:19.581Z,100.00
2022-12-16T09:02:04.563Z,100.00
2022-12-16T09:04:49.981Z,100.00
2022-12-16T09:07:36.820Z,100.00
2022-12-16T09:10:23.200Z,100.00
2022-12-16T09:13:08.312Z,100.00
2022-12-16T09:15:53.648Z,100.00
2022-12-16T09:18:38.907Z,100.00
2022-12-16T09:21:25.727Z,100.00
2022-12-16T09:24:26.657Z,100.00
2022-12-16T09:27:11.513Z,100.00
2022-12-16T09:29:56.691Z,100.00
2022-12-16T09:32:41.589Z,100.00
2022-12-16T09:35:26.850Z,100.00
2022-12-16T09:38:11.841Z,100.00
2022-12-16T09:40:57.935Z,100.00
2022-12-16T09:43:53.475Z,100.00
2022-12-16T09:46:53.175Z,100.00
2022-12-16T09:49:38.417Z,100.00
2022-12-16T09:52:25.228Z,100.00
2022-12-16T09:55:09.981Z,100.00
2022-12-16T09:57:55.709Z,100.00
2022-12-16T10:00:45.591Z,100.00
2022-12-16T10:03:38.635Z,100.00
2022-12-16T10:06:30.729Z,100.00
2022-12-16T10:09:25.014Z,100.00
2022-12-16T10:12:28.105Z,100.00
2022-12-16T10:15:18.961Z,100.00
2022-12-16T10:18:04.825Z,100.00
2022-12-16T10:20:57.813Z,100.00
2022-12-16T10:23:55.039Z,100.00
2022-12-16T10:26:47.192Z,100.00
2022-12-16T10:29:37.127Z,100.00
2022-12-16T10:32:35.155Z,100.00
2022-12-16T10:35:21.898Z,100.00
2022-12-16T10:38:21.088Z,100.00
2022-12-16T10:41:06.306Z,100.00
2022-12-16T10:43:56.063Z,100.00
2022-12-16T10:46:43.723Z,100.00
2022-12-16T10:49:32.929Z,100.00
2022-12-16T10:52:19.200Z,100.00
2022-12-16T10:55:15.680Z,100.00
2022-12-16T10:58:19.526Z,100.00
2022-12-16T11:01:06.622Z,100.00
2022-12-16T11:03:53.185Z,100.00
2022-12-16T11:06:47.120Z,100.00
2022-12-16T11:09:44.433Z,100.00
2022-12-16T11:12:48.485Z,100.00
2022-12-16T11:15:42.060Z,100.00
2022-12-16T11:18:29.329Z,100.00
2022-12-16T11:21:37.328Z,100.00
2022-12-16T11:24:25.248Z,100.00
2022-12-16T11:27:17.809Z,100.00
2022-12-16T11:30:09.896Z,100.00
2022-12-16T11:32:57.271Z,100.00
2022-12-16T11:35:47.128Z,100.00
2022-12-16T11:38:42.937Z,100.00
2022-12-16T11:41:29.572Z,100.00
2022-12-16T11:44:16.150Z,100.00
2022-12-16T11:47:01.719Z,100.00
2022-12-16T11:49:49.967Z,100.00
2022-12-16T11:52:38.031Z,100.00
2022-12-16T11:58:55.402Z,100.00
2022-12-16T12:01:46.024Z,100.00
2022-12-16T12:04:31.646Z,100.00
2022-12-16T12:07:41.107Z,100.00
2022-12-16T12:10:41.899Z,100.00
2022-12-16T12:13:46.890Z,100.00
2022-12-16T12:16:38.333Z,100.00
2022-12-16T12:19:27.070Z,100.00
2022-12-16T12:22:20.136Z,100.00
2022-12-16T12:25:17.181Z,100.00
2022-12-16T12:28:21.685Z,100.00
2022-12-16T12:31:13.568Z,100.00
2022-12-16T12:34:16.861Z,100.00
2022-12-16T12:37:21.118Z,100.00
2022-12-16T12:40:10.683Z,100.00
2022-12-16T12:43:03.615Z,100.00
2022-12-16T12:45:48.595Z,100.00
2022-12-16T12:48:36.636Z,100.00
2022-12-16T12:51:24.601Z,100.00
2022-12-16T12:54:20.494Z,100.00
2022-12-16T12:57:10.028Z,100.00
2022-12-16T13:00:02.556Z,100.00
2022-12-16T13:02:49.272Z,100.00
2022-12-16T13:05:35.905Z,100.00
2022-12-16T13:08:39.564Z,100.00
2022-12-16T13:11:35.217Z,100.00
2022-12-16T13:14:20.576Z,100.00
2022-12-16T13:17:05.701Z,100.00
2022-12-16T13:19:50.480Z,100.00
2022-12-16T13:22:52.772Z,100.00
2022-12-16T13:25:56.496Z,100.00
2022-12-16T13:28:43.698Z,100.00
2022-12-16T13:31:28.656Z,100.00
2022-12-16T13:34:15.368Z,100.00
2022-12-16T13:37:02.846Z,100.00
2022-12-16T13:39:48.706Z,100.00
2022-12-16T13:42:53.574Z,100.00
2022-12-16T13:45:47.918Z,100.00
2022-12-16T13:48:48.506Z,100.00
2022-12-16T13:51:52.252Z,100.00
2022-12-16T13:54:37.341Z,100.00
2022-12-16T13:57:23.847Z,100.00
2022-12-16T14:00:09.296Z,100.00
2022-12-16T14:02:57.499Z,100.00
2022-12-16T14:05:51.839Z,100.00
2022-12-16T14:08:41.397Z,100.00
2022-12-16T14:11:36.141Z,100.00
2022-12-16T14:14:27.111Z,100.00
2022-12-16T14:17:20.045Z,100.00
2022-12-16T14:20:17.070Z,100.00
2022-12-16T14:23:01.935Z,100.00
2022-12-16T14:25:47.868Z,100.00
2022-12-16T14:28:41.781Z,100.00
2022-12-16T14:31:34.880Z,100.00
2022-12-16T14:34:40.336Z,100.00
2022-12-16T14:37:31.802Z,100.00
2022-12-16T14:40:16.542Z,100.00
2022-12-16T14:43:02.047Z,100.00
2022-12-16T14:45:50.000Z,100.00
2022-12-16T14:48:50.538Z,100.00
2022-12-16T14:51:41.856Z,100.00
2022-12-16T14:54:47.298Z,100.00
2022-12-16T14:57:36.976Z,100.00
2022-12-16T15:00:28.227Z,100.00
2022-12-16T15:03:15.361Z,100.00
2022-12-16T15:06:01.813Z,100.00
2022-12-16T15:08:49.280Z,100.00
2022-12-16T15:11:37.103Z,100.00
2022-12-16T15:14:23.043Z,100.00
2022-12-16T15:17:09.344Z,100.00
2022-12-16T15:20:03.893Z,100.00
2022-12-16T15:22:50.966Z,100.00
2022-12-16T15:25:43.474Z,100.00
2022-12-16T15:28:58.439Z,100.00
2022-12-16T15:32:03.709Z,100.00
2022-12-16T15:35:05.621Z,100.00
2022-12-16T15:38:03.908Z,100.00
2022-12-16T15:40:50.682Z,100.00
2022-12-16T15:43:44.763Z,100.00
2022-12-16T15:46:40.629Z,100.00
2022-12-16T15:49:35.950Z,100.00
2022-12-16T15:52:20.787Z,100.00
2022-12-16T15:55:10.173Z,100.00
2022-12-16T15:57:56.111Z,100.00
2022-12-16T16:00:41.305Z,100.00
2022-12-16T16:03:44.000Z,100.00
2022-12-16T16:06:40.377Z,100.00
2022-12-16T16:09:34.944Z,100.00
2022-12-16T16:12:20.228Z,100.00
2022-12-16T16:15:05.389Z,100.00
2022-12-16T16:17:50.265Z,100.00
2022-12-16T16:20:37.201Z,100.00
2022-12-16T16:23:22.369Z,100.00
2022-12-16T16:26:07.798Z,100.00
2022-12-16T16:28:53.344Z,100.00
2022-12-16T16:31:38.702Z,100.00
2022-12-16T16:34:24.049Z,100.00
2022-12-16T16:37:11.702Z,100.00
2022-12-16T16:39:57.133Z,100.00
2022-12-16T16:42:42.247Z,100.00
2022-12-16T16:45:27.668Z,100.00
2022-12-16T16:48:20.111Z,100.00
2022-12-16T16:51:05.045Z,100.00
2022-12-16T16:53:50.170Z,100.00
2022-12-16T16:56:35.029Z,100.00
2022-12-16T16:59:20.157Z,100.00
2022-12-16T17:02:05.103Z,100.00
2022-12-16T17:04:50.126Z,100.00
2022-12-16T17:07:35.409Z,100.00
2022-12-16T17:10:20.617Z,100.00
2022-12-16T17:13:05.472Z,100.00
2022-12-16T17:15:53.255Z,100.00
2022-12-16T17:18:43.826Z,100.00
2022-12-16T17:21:30.974Z,100.00
2022-12-16T17:24:15.795Z,100.00
2022-12-16T17:27:01.731Z,100.00
2022-12-16T17:29:47.106Z,100.00
2022-12-16T17:32:32.415Z,100.00
2022-12-16T17:35:17.855Z,100.00
2022-12-16T17:38:03.046Z,100.00
2022-12-16T17:40:48.207Z,100.00
2022-12-16T17:43:33.713Z,100.00
2022-12-16T17:46:37.517Z,100.00
2022-12-16T17:49:22.652Z,100.00
2022-12-16T17:52:07.564Z,100.00
2022-12-16T17:54:52.785Z,100.00
2022-12-16T17:57:37.645Z,100.00
2022-12-16T18:00:22.795Z,100.00
2022-12-16T18:03:07.756Z,100.00
2022-12-16T18:05:52.785Z,100.00
2022-12-16T18:08:37.699Z,100.00
2022-12-16T18:11:22.669Z,100.00
2022-12-16T18:14:07.628Z,100.00
2022-12-16T18:16:52.520Z,100.00
2022-12-16T18:19:37.592Z,100.00
2022-12-16T18:22:22.579Z,100.00
2022-12-16T18:25:07.437Z,100.00
2022-12-16T18:27:54.460Z,100.00
2022-12-16T18:30:39.671Z,100.00
2022-12-16T18:33:24.525Z,100.00
2022-12-16T18:36:09.626Z,100.00
2022-12-16T18:38:54.665Z,100.00
2022-12-16T18:41:40.763Z,100.00
2022-12-16T18:44:28.704Z,100.00
2022-12-16T18:47:13.911Z,100.00
2022-12-16T18:49:59.035Z,100.00
2022-12-16T18:52:44.813Z,100.00
2022-12-16T18:55:29.882Z,100.00
2022-12-16T18:58:42.834Z,100.00
2022-12-16T19:01:21.075Z,100.00
2022-12-16T19:04:05.955Z,100.00
2022-12-16T19:06:50.867Z,100.00
2022-12-16T19:09:36.054Z,100.00
2022-12-16T19:12:20.984Z,100.00
2022-12-16T19:15:06.226Z,100.00
2022-12-16T19:17:51.154Z,100.00
2022-12-16T19:20:37.801Z,100.00
2022-12-16T19:23:22.679Z,100.00
2022-12-16T19:26:08.159Z,100.00
2022-12-16T19:28:53.422Z,100.00
2022-12-16T19:31:45.372Z,100.00
2022-12-16T19:34:30.259Z,100.00
2022-12-16T19:37:15.587Z,100.00
2022-12-16T19:40:00.300Z,100.00
2022-12-16T19:42:45.532Z,100.00
2022-12-16T19:45:30.845Z,100.00
2022-12-16T19:48:36.194Z,100.00
2022-12-16T19:51:21.492Z,100.00
2022-12-16T19:54:06.653Z,100.00
2022-12-16T19:56:52.071Z,100.00
2022-12-16T19:59:37.575Z,100.00
2022-12-16T20:02:23.142Z,100.00
2022-12-16T20:05:08.203Z,100.00
2022-12-16T20:10:59.292Z,100.00
2022-12-16T20:13:44.228Z,100.00
2022-12-16T20:16:29.934Z,100.00
2022-12-16T20:19:14.848Z,100.00
2022-12-16T20:22:06.188Z,100.00
2022-12-16T20:24:53.546Z,100.00
2022-12-16T20:27:41.045Z,100.00
2022-12-16T20:30:26.410Z,100.00
2022-12-16T20:33:11.425Z,99.60
2022-12-16T20:35:56.426Z,99.66
2022-12-16T20:38:41.338Z,99.38
2022-12-16T20:41:26.201Z,99.24
2022-12-16T20:44:11.213Z,98.92
2022-12-16T20:46:56.687Z,99.15
2022-12-16T20:49:41.625Z,99.07
2022-12-16T20:52:26.472Z,98.05
2022-12-16T20:55:11.613Z,98.58
2022-12-16T20:57:56.839Z,98.50
2022-12-16T21:00:41.887Z,97.92
2022-12-16T21:03:27.635Z,98.47
2022-12-16T21:06:13.010Z,97.67
2022-12-16T21:08:57.992Z,97.95
2022-12-16T21:11:42.980Z,98.59
2022-12-16T21:14:27.751Z,98.82
2022-12-16T21:17:12.769Z,98.53
2022-12-16T21:19:57.894Z,98.90
2022-12-16T21:22:42.973Z,98.91
2022-12-16T21:25:27.894Z,98.38
2022-12-16T21:28:16.408Z,98.84
2022-12-16T21:31:01.460Z,98.58
2022-12-16T21:33:46.941Z,98.36
2022-12-16T21:36:32.119Z,98.09
2022-12-16T21:39:18.189Z,98.19
2022-12-16T21:42:03.030Z,98.08
2022-12-16T21:45:07.833Z,98.36
2022-12-16T21:47:52.653Z,97.69
2022-12-16T21:50:40.911Z,98.16
2022-12-16T21:53:26.110Z,98.20
2022-12-16T21:56:11.842Z,97.78
2022-12-16T21:58:56.649Z,98.18
2022-12-16T22:01:41.491Z,98.16
2022-12-16T22:04:27.675Z,97.62
2022-12-16T22:07:12.699Z,97.51
2022-12-16T22:09:57.998Z,97.79
2022-12-16T22:12:43.000Z,97.86
2022-12-16T22:15:27.805Z,97.76
2022-12-16T22:18:12.818Z,98.29
2022-12-16T22:20:57.749Z,98.47
2022-12-16T22:23:48.771Z,97.90
2022-12-16T22:26:33.624Z,97.87
2022-12-16T22:29:18.492Z,98.06
2022-12-16T22:32:03.559Z,97.49
2022-12-16T22:34:48.419Z,97.54
2022-12-16T22:37:33.393Z,97.30
2022-12-16T22:40:18.392Z,97.46
2022-12-16T22:43:05.640Z,97.99
2022-12-16T22:45:50.746Z,97.90
2022-12-16T22:48:37.011Z,97.90
2022-12-16T22:51:21.848Z,97.69
2022-12-16T22:54:07.367Z,97.85
2022-12-16T22:56:52.135Z,98.03
2022-12-16T22:59:37.079Z,97.29
2022-12-16T23:02:21.947Z,97.13
2022-12-16T23:05:06.882Z,97.11
2022-12-16T23:07:52.112Z,96.88
2022-12-16T23:10:36.976Z,97.35
2022-12-16T23:13:22.039Z,97.77
2022-12-16T23:16:06.927Z,97.35
2022-12-16T23:18:52.114Z,97.12
2022-12-16T23:21:37.770Z,97.71
2022-12-16T23:24:23.189Z,97.65
2022-12-16T23:27:08.279Z,97.04
2022-12-16T23:29:56.716Z,97.53
2022-12-16T23:32:30.187Z,100.00
2022-12-16T23:32:42.257Z,97.17
2022-12-16T23:35:27.135Z,95.79
2022-12-16T23:38:22.277Z,96.37
2022-12-16T23:41:07.164Z,96.23
2022-12-16T23:43:52.086Z,96.94
2022-12-16T23:46:50.807Z,97.06
2022-12-16T23:49:38.440Z,96.66
2022-12-16T23:52:23.326Z,97.42
2022-12-16T23:55:08.201Z,96.78
2022-12-16T23:57:53.382Z,96.93
